EXS5LM EGNX-LEIB
Flight info
| Callsign | EXS5LM |
|---|---|
| Flight time | 2h 10m |
| Altitude | 23000 |
| Route | SAPCO Y53 DTY M605 SILVA/N0459F360 Q41 COWLY/N0460F370 DCT GWC UN859 SOPIL DCT BALAN DCT EVPOK DCT NARAK DCT GAI DCT LOMRA DCT ROCAN DCT PUMAL DCT XEPLA DCT BCN Z174 CORDA |
| Aircraft | B738/M-SDE2E3FGHIRWXY/LB1 |
Departure
| Time | 2026-05-05 10:13 |
|---|---|
| Airport | East Midlands Airport (EGNX) |
Arrival
| Time | 2026-05-05 12:23 |
|---|---|
| Airport | Ibiza Airport (LEIB) |
| Time | Latitude | Longitude | Altitude | Speed | Heading |
|---|---|---|---|---|---|
| 2026-05-05 09:51 | 52.82709 | -1.33209 | 300 ft | 0 kts | 178° |
| 2026-05-05 10:04 | 52.82716 | -1.33209 | 300 ft | 4 kts | 178° |
| 2026-05-05 10:05 | 52.82743 | -1.33211 | 300 ft | 4 kts | 178° |
| 2026-05-05 10:05 | 52.82768 | -1.33209 | 300 ft | 4 kts | 206° |
| 2026-05-05 10:05 | 52.82782 | -1.33186 | 303 ft | 2 kts | 245° |
| 2026-05-05 10:05 | 52.82790 | -1.33147 | 302 ft | 4 kts | 264° |
| 2026-05-05 10:06 | 52.82791 | -1.33103 | 300 ft | 4 kts | 269° |
| 2026-05-05 10:06 | 52.82791 | -1.33095 | 300 ft | 1 kts | 268° |
| 2026-05-05 10:09 | 52.82795 | -1.33145 | 300 ft | 7 kts | 303° |
| 2026-05-05 10:09 | 52.82841 | -1.33162 | 300 ft | 7 kts | 358° |
| 2026-05-05 10:09 | 52.82890 | -1.33164 | 300 ft | 7 kts | 358° |
| 2026-05-05 10:10 | 52.82922 | -1.33214 | 301 ft | 7 kts | 284° |
| 2026-05-05 10:10 | 52.82923 | -1.33290 | 304 ft | 7 kts | 268° |
| 2026-05-05 10:10 | 52.82920 | -1.33427 | 307 ft | 37 kts | 268° |
| 2026-05-05 10:10 | 52.82908 | -1.34167 | 300 ft | 57 kts | 268° |
| 2026-05-05 10:11 | 52.82909 | -1.34604 | 305 ft | 26 kts | 292° |
| 2026-05-05 10:11 | 52.82951 | -1.34660 | 302 ft | 0 kts | 352° |
| 2026-05-05 10:11 | 52.82966 | -1.34663 | 303 ft | 9 kts | 354° |
| 2026-05-05 10:11 | 52.83057 | -1.34634 | 306 ft | 15 kts | 53° |
| 2026-05-05 10:12 | 52.83072 | -1.34392 | 302 ft | 46 kts | 88° |
| 2026-05-05 10:12 | 52.83094 | -1.33452 | 308 ft | 115 kts | 90° |
| 2026-05-05 10:12 | 52.83099 | -1.31882 | 552 ft | 145 kts | 88° |
| 2026-05-05 10:12 | 52.83057 | -1.29962 | 755 ft | 186 kts | 89° |
| 2026-05-05 10:13 | 52.83029 | -1.27869 | 1895 ft | 171 kts | 90° |
| 2026-05-05 10:13 | 52.82935 | -1.25937 | 2868 ft | 171 kts | 94° |
| 2026-05-05 10:13 | 52.82656 | -1.23879 | 3230 ft | 202 kts | 111° |
| 2026-05-05 10:13 | 52.81866 | -1.21793 | 3448 ft | 228 kts | 129° |
| 2026-05-05 10:14 | 52.80775 | -1.19831 | 3783 ft | 246 kts | 133° |
| 2026-05-05 10:14 | 52.80305 | -1.19016 | 3865 ft | 255 kts | 133° |
| 2026-05-05 10:14 | 52.79039 | -1.16846 | 4538 ft | 264 kts | 134° |
| 2026-05-05 10:14 | 52.77598 | -1.15001 | 5414 ft | 265 kts | 159° |
| 2026-05-05 10:15 | 52.75797 | -1.14741 | 6221 ft | 268 kts | 194° |
| 2026-05-05 10:15 | 52.74165 | -1.16198 | 6995 ft | 271 kts | 221° |
| 2026-05-05 10:15 | 52.72742 | -1.18274 | 7757 ft | 275 kts | 222° |
| 2026-05-05 10:15 | 52.71275 | -1.20337 | 8535 ft | 279 kts | 221° |
| 2026-05-05 10:16 | 52.69757 | -1.22382 | 9337 ft | 282 kts | 220° |
| 2026-05-05 10:16 | 52.68211 | -1.24424 | 10106 ft | 287 kts | 220° |
| 2026-05-05 10:16 | 52.66605 | -1.26527 | 10474 ft | 305 kts | 220° |
| 2026-05-05 10:16 | 52.64875 | -1.28782 | 10650 ft | 329 kts | 219° |
| 2026-05-05 10:17 | 52.63056 | -1.31142 | 11047 ft | 342 kts | 220° |
| 2026-05-05 10:17 | 52.61164 | -1.33591 | 11754 ft | 345 kts | 219° |
| 2026-05-05 10:17 | 52.59178 | -1.35833 | 12525 ft | 350 kts | 206° |
| 2026-05-05 10:17 | 52.56789 | -1.36750 | 13267 ft | 358 kts | 182° |
| 2026-05-05 10:18 | 52.54336 | -1.36152 | 14017 ft | 365 kts | 162° |
| 2026-05-05 10:18 | 52.52002 | -1.34414 | 14760 ft | 368 kts | 157° |
| 2026-05-05 10:18 | 52.49650 | -1.32715 | 15507 ft | 370 kts | 159° |
| 2026-05-05 10:18 | 52.47259 | -1.31076 | 16264 ft | 372 kts | 159° |
| 2026-05-05 10:19 | 52.44847 | -1.29451 | 17005 ft | 375 kts | 159° |
| 2026-05-05 10:19 | 52.42451 | -1.27843 | 17731 ft | 378 kts | 159° |
| 2026-05-05 10:19 | 52.40007 | -1.26200 | 18421 ft | 381 kts | 159° |
| 2026-05-05 10:19 | 52.37548 | -1.24545 | 19047 ft | 383 kts | 159° |
| 2026-05-05 10:20 | 52.35070 | -1.22875 | 19656 ft | 386 kts | 159° |
| 2026-05-05 10:20 | 52.32578 | -1.21195 | 20273 ft | 389 kts | 159° |
| 2026-05-05 10:20 | 52.30062 | -1.19501 | 20898 ft | 392 kts | 159° |
| 2026-05-05 10:20 | 52.27531 | -1.17797 | 21487 ft | 395 kts | 159° |
| 2026-05-05 10:21 | 52.24979 | -1.16081 | 22075 ft | 397 kts | 159° |
| 2026-05-05 10:21 | 52.22443 | -1.14379 | 22654 ft | 400 kts | 159° |
| 2026-05-05 10:21 | 52.19856 | -1.12646 | 23210 ft | 403 kts | 159° |
| 2026-05-05 10:21 | 52.17214 | -1.11079 | 23724 ft | 404 kts | 166° |
| 2026-05-05 10:22 | 52.14456 | -1.10103 | 24186 ft | 406 kts | 171° |
| 2026-05-05 10:22 | 52.11675 | -1.09245 | 24659 ft | 408 kts | 171° |
| 2026-05-05 10:22 | 52.08873 | -1.08386 | 25115 ft | 410 kts | 171° |
| 2026-05-05 10:22 | 52.06060 | -1.07500 | 25549 ft | 413 kts | 171° |
| 2026-05-05 10:23 | 52.03229 | -1.06587 | 25979 ft | 415 kts | 171° |
| 2026-05-05 10:23 | 52.00419 | -1.05673 | 26422 ft | 417 kts | 171° |
| 2026-05-05 10:23 | 51.97569 | -1.04737 | 26859 ft | 419 kts | 171° |
| 2026-05-05 10:23 | 51.94697 | -1.03781 | 27275 ft | 421 kts | 171° |
| 2026-05-05 10:24 | 51.91814 | -1.02822 | 27684 ft | 422 kts | 171° |
| 2026-05-05 10:24 | 51.88926 | -1.01864 | 28108 ft | 424 kts | 171° |
| 2026-05-05 10:24 | 51.86017 | -1.01077 | 28515 ft | 423 kts | 177° |
| 2026-05-05 10:24 | 51.83075 | -1.00676 | 28891 ft | 426 kts | 173° |
| 2026-05-05 10:25 | 51.80198 | -0.99394 | 29248 ft | 432 kts | 162° |
| 2026-05-05 10:25 | 51.77432 | -0.97639 | 29659 ft | 433 kts | 161° |
| 2026-05-05 10:25 | 51.74619 | -0.95846 | 30019 ft | 434 kts | 162° |
| 2026-05-05 10:25 | 51.71790 | -0.94065 | 30300 ft | 436 kts | 162° |
| 2026-05-05 10:26 | 51.68935 | -0.92296 | 30542 ft | 439 kts | 162° |
| 2026-05-05 10:26 | 51.66067 | -0.90544 | 30788 ft | 441 kts | 162° |
| 2026-05-05 10:26 | 51.63214 | -0.88817 | 31052 ft | 442 kts | 162° |
| 2026-05-05 10:26 | 51.60322 | -0.87078 | 31392 ft | 442 kts | 162° |
| 2026-05-05 10:27 | 51.57445 | -0.85353 | 31749 ft | 441 kts | 162° |
| 2026-05-05 10:27 | 51.54557 | -0.83626 | 32052 ft | 442 kts | 162° |
| 2026-05-05 10:27 | 51.51667 | -0.81901 | 32332 ft | 443 kts | 162° |
| 2026-05-05 10:27 | 51.48804 | -0.80194 | 32627 ft | 443 kts | 161° |
| 2026-05-05 10:28 | 51.45900 | -0.78464 | 32955 ft | 444 kts | 161° |
| 2026-05-05 10:28 | 51.43005 | -0.76742 | 33238 ft | 444 kts | 161° |
| 2026-05-05 10:28 | 51.40100 | -0.75015 | 33528 ft | 445 kts | 161° |
| 2026-05-05 10:28 | 51.37196 | -0.73292 | 33815 ft | 445 kts | 161° |
| 2026-05-05 10:29 | 51.34287 | -0.71567 | 34085 ft | 446 kts | 161° |
| 2026-05-05 10:29 | 51.31414 | -0.69866 | 34322 ft | 446 kts | 161° |
| 2026-05-05 10:29 | 51.28500 | -0.68144 | 34556 ft | 446 kts | 161° |
| 2026-05-05 10:29 | 51.25584 | -0.66422 | 34784 ft | 447 kts | 161° |
| 2026-05-05 10:30 | 51.22667 | -0.64703 | 35003 ft | 447 kts | 161° |
| 2026-05-05 10:30 | 51.19815 | -0.63023 | 35232 ft | 447 kts | 161° |
| 2026-05-05 10:30 | 51.16900 | -0.61310 | 35458 ft | 447 kts | 161° |
| 2026-05-05 10:30 | 51.13964 | -0.59585 | 35671 ft | 448 kts | 161° |
| 2026-05-05 10:31 | 51.11072 | -0.57890 | 35882 ft | 448 kts | 161° |
| 2026-05-05 10:31 | 51.08134 | -0.56169 | 36090 ft | 449 kts | 161° |
| 2026-05-05 10:31 | 51.05195 | -0.54451 | 36293 ft | 449 kts | 161° |
| 2026-05-05 10:31 | 51.02258 | -0.52736 | 36511 ft | 449 kts | 161° |
| 2026-05-05 10:32 | 50.99323 | -0.51024 | 36706 ft | 450 kts | 161° |
| 2026-05-05 10:32 | 50.96384 | -0.49311 | 36904 ft | 448 kts | 161° |
| 2026-05-05 10:32 | 50.90560 | -0.45924 | 36967 ft | 450 kts | 161° |
| 2026-05-05 10:33 | 50.84638 | -0.42492 | 36980 ft | 452 kts | 161° |
| 2026-05-05 10:33 | 50.78740 | -0.39083 | 36972 ft | 454 kts | 161° |
| 2026-05-05 10:34 | 50.72792 | -0.35654 | 36967 ft | 454 kts | 161° |
| 2026-05-05 10:34 | 50.66890 | -0.32260 | 36965 ft | 453 kts | 161° |
| 2026-05-05 10:35 | 50.60952 | -0.28854 | 36960 ft | 452 kts | 161° |
| 2026-05-05 10:35 | 50.55038 | -0.25471 | 36960 ft | 451 kts | 161° |
| 2026-05-05 10:36 | 50.49171 | -0.22125 | 36957 ft | 450 kts | 161° |
| 2026-05-05 10:36 | 50.43287 | -0.18777 | 36955 ft | 448 kts | 161° |
| 2026-05-05 10:37 | 50.37425 | -0.15450 | 36953 ft | 447 kts | 161° |
| 2026-05-05 10:37 | 50.31596 | -0.12214 | 36944 ft | 445 kts | 162° |
| 2026-05-05 10:38 | 50.25769 | -0.08935 | 36950 ft | 444 kts | 162° |
| 2026-05-05 10:38 | 50.19965 | -0.05638 | 36952 ft | 442 kts | 162° |
| 2026-05-05 10:39 | 50.14213 | -0.02391 | 36950 ft | 441 kts | 162° |
| 2026-05-05 10:39 | 50.08410 | 0.00702 | 36943 ft | 439 kts | 167° |
| 2026-05-05 10:40 | 50.02479 | 0.03024 | 36935 ft | 438 kts | 169° |
| 2026-05-05 10:40 | 49.96576 | 0.05245 | 36936 ft | 438 kts | 168° |
| 2026-05-05 10:41 | 49.90652 | 0.07537 | 36923 ft | 438 kts | 168° |
| 2026-05-05 10:41 | 49.84764 | 0.09841 | 36919 ft | 438 kts | 168° |
| 2026-05-05 10:42 | 49.75899 | 0.13318 | 36935 ft | 437 kts | 168° |
| 2026-05-05 10:43 | 49.70024 | 0.15604 | 36936 ft | 437 kts | 168° |
| 2026-05-05 10:43 | 49.64106 | 0.17932 | 36933 ft | 438 kts | 167° |
| 2026-05-05 10:44 | 49.58238 | 0.20308 | 36955 ft | 438 kts | 167° |
| 2026-05-05 10:44 | 49.52338 | 0.22703 | 36958 ft | 438 kts | 167° |
| 2026-05-05 10:45 | 49.46428 | 0.25097 | 36912 ft | 439 kts | 167° |
| 2026-05-05 10:45 | 49.40507 | 0.27489 | 36908 ft | 440 kts | 167° |
| 2026-05-05 10:46 | 49.34619 | 0.29865 | 36908 ft | 440 kts | 167° |
| 2026-05-05 10:46 | 49.28684 | 0.32254 | 36908 ft | 440 kts | 166° |
| 2026-05-05 10:47 | 49.22770 | 0.34723 | 36909 ft | 440 kts | 166° |
| 2026-05-05 10:47 | 49.16855 | 0.37216 | 36903 ft | 440 kts | 166° |
| 2026-05-05 10:48 | 49.10947 | 0.39699 | 36893 ft | 440 kts | 166° |
| 2026-05-05 10:48 | 49.05065 | 0.42162 | 36889 ft | 440 kts | 166° |
| 2026-05-05 10:49 | 48.99160 | 0.44628 | 36895 ft | 439 kts | 166° |
| 2026-05-05 10:49 | 48.93254 | 0.47089 | 36895 ft | 439 kts | 166° |
| 2026-05-05 10:50 | 48.87365 | 0.49546 | 36892 ft | 442 kts | 166° |
| 2026-05-05 10:50 | 48.81434 | 0.52010 | 36882 ft | 442 kts | 166° |
| 2026-05-05 10:51 | 48.75497 | 0.54409 | 36875 ft | 441 kts | 166° |
| 2026-05-05 10:51 | 48.69585 | 0.56692 | 36878 ft | 441 kts | 166° |
| 2026-05-05 10:52 | 48.63646 | 0.59001 | 36870 ft | 440 kts | 166° |
| 2026-05-05 10:52 | 48.57705 | 0.61329 | 36870 ft | 439 kts | 167° |
| 2026-05-05 10:53 | 48.51813 | 0.63571 | 36867 ft | 440 kts | 167° |
| 2026-05-05 10:53 | 48.46844 | 0.65557 | 36865 ft | 439 kts | 166° |
| 2026-05-05 10:54 | 48.40982 | 0.67956 | 36864 ft | 439 kts | 166° |
| 2026-05-05 10:54 | 48.35091 | 0.70368 | 36854 ft | 438 kts | 166° |
| 2026-05-05 10:55 | 48.29197 | 0.72779 | 36853 ft | 438 kts | 166° |
| 2026-05-05 10:55 | 48.23337 | 0.75137 | 36847 ft | 439 kts | 167° |
| 2026-05-05 10:56 | 48.17393 | 0.77440 | 36846 ft | 442 kts | 167° |
| 2026-05-05 10:56 | 48.11423 | 0.79758 | 36845 ft | 443 kts | 167° |
| 2026-05-05 10:57 | 48.05459 | 0.82099 | 36826 ft | 445 kts | 167° |
| 2026-05-05 10:57 | 47.99466 | 0.84459 | 36823 ft | 444 kts | 167° |
| 2026-05-05 10:58 | 47.93488 | 0.86814 | 36828 ft | 443 kts | 167° |
| 2026-05-05 10:58 | 47.87552 | 0.89153 | 36850 ft | 443 kts | 167° |
| 2026-05-05 10:59 | 47.81570 | 0.91479 | 36836 ft | 443 kts | 167° |
| 2026-05-05 10:59 | 47.75595 | 0.93753 | 36830 ft | 443 kts | 167° |
| 2026-05-05 11:00 | 47.69624 | 0.96037 | 36833 ft | 442 kts | 167° |
| 2026-05-05 11:00 | 47.63703 | 0.98324 | 36843 ft | 442 kts | 167° |
| 2026-05-05 11:01 | 47.57735 | 1.00634 | 36853 ft | 443 kts | 167° |
| 2026-05-05 11:01 | 47.51757 | 1.02956 | 36856 ft | 443 kts | 167° |
| 2026-05-05 11:02 | 47.45808 | 1.05238 | 36853 ft | 444 kts | 167° |
| 2026-05-05 11:02 | 47.39672 | 1.06455 | 36862 ft | 445 kts | 182° |
| 2026-05-05 11:03 | 47.33511 | 1.06208 | 36860 ft | 446 kts | 183° |
| 2026-05-05 11:03 | 47.27295 | 1.05965 | 36854 ft | 445 kts | 182° |
| 2026-05-05 11:04 | 47.21094 | 1.05812 | 36859 ft | 445 kts | 182° |
| 2026-05-05 11:04 | 47.14934 | 1.05693 | 36850 ft | 444 kts | 182° |
| 2026-05-05 11:05 | 47.08724 | 1.05585 | 36855 ft | 444 kts | 182° |
| 2026-05-05 11:05 | 47.02581 | 1.05452 | 36860 ft | 444 kts | 182° |
| 2026-05-05 11:06 | 46.96386 | 1.05201 | 36878 ft | 444 kts | 184° |
| 2026-05-05 11:06 | 46.90232 | 1.04876 | 36866 ft | 444 kts | 184° |
| 2026-05-05 11:07 | 46.84035 | 1.04587 | 36875 ft | 445 kts | 183° |
| 2026-05-05 11:07 | 46.77831 | 1.04324 | 36873 ft | 446 kts | 183° |
| 2026-05-05 11:08 | 46.71664 | 1.04070 | 36869 ft | 447 kts | 183° |
| 2026-05-05 11:08 | 46.65433 | 1.03819 | 36868 ft | 447 kts | 183° |
| 2026-05-05 11:09 | 46.59199 | 1.03578 | 36877 ft | 446 kts | 184° |
| 2026-05-05 11:09 | 46.53018 | 1.03345 | 36864 ft | 447 kts | 181° |
| 2026-05-05 11:10 | 46.46874 | 1.04667 | 36895 ft | 447 kts | 170° |
| 2026-05-05 11:10 | 46.40833 | 1.06712 | 36881 ft | 447 kts | 169° |
| 2026-05-05 11:11 | 46.34768 | 1.08777 | 36887 ft | 447 kts | 169° |
| 2026-05-05 11:11 | 46.28700 | 1.10815 | 36883 ft | 447 kts | 170° |
| 2026-05-05 11:12 | 46.22648 | 1.12830 | 36887 ft | 447 kts | 170° |
| 2026-05-05 11:12 | 46.16602 | 1.14835 | 36899 ft | 447 kts | 170° |
| 2026-05-05 11:13 | 46.10525 | 1.16847 | 36895 ft | 447 kts | 170° |
| 2026-05-05 11:13 | 46.04449 | 1.18855 | 36910 ft | 448 kts | 170° |
| 2026-05-05 11:14 | 45.98402 | 1.20849 | 36911 ft | 448 kts | 170° |
| 2026-05-05 11:14 | 45.92306 | 1.22856 | 36911 ft | 448 kts | 170° |
| 2026-05-05 11:15 | 45.86214 | 1.24858 | 36915 ft | 448 kts | 170° |
| 2026-05-05 11:15 | 45.80158 | 1.26844 | 36909 ft | 449 kts | 170° |
| 2026-05-05 11:16 | 45.74055 | 1.28843 | 36920 ft | 449 kts | 170° |
| 2026-05-05 11:16 | 45.67948 | 1.30841 | 36916 ft | 450 kts | 171° |
| 2026-05-05 11:17 | 45.61886 | 1.32824 | 36905 ft | 450 kts | 171° |
| 2026-05-05 11:17 | 45.55776 | 1.34827 | 36923 ft | 449 kts | 171° |
| 2026-05-05 11:18 | 45.49675 | 1.36820 | 36921 ft | 449 kts | 171° |
| 2026-05-05 11:18 | 45.43614 | 1.38763 | 36911 ft | 449 kts | 171° |
| 2026-05-05 11:19 | 45.37511 | 1.40679 | 36928 ft | 448 kts | 171° |
| 2026-05-05 11:19 | 45.31396 | 1.42620 | 36921 ft | 448 kts | 171° |
| 2026-05-05 11:20 | 45.25353 | 1.44554 | 36922 ft | 448 kts | 171° |
| 2026-05-05 11:20 | 45.19263 | 1.46506 | 36938 ft | 448 kts | 171° |
| 2026-05-05 11:21 | 45.13160 | 1.48459 | 36935 ft | 449 kts | 171° |
| 2026-05-05 11:21 | 45.07102 | 1.50392 | 36940 ft | 449 kts | 171° |
| 2026-05-05 11:22 | 45.00996 | 1.52336 | 36943 ft | 449 kts | 172° |
| 2026-05-05 11:22 | 44.94884 | 1.54278 | 36941 ft | 449 kts | 172° |
| 2026-05-05 11:23 | 44.88818 | 1.56202 | 36935 ft | 449 kts | 172° |
| 2026-05-05 11:23 | 44.82715 | 1.58133 | 36938 ft | 449 kts | 172° |
| 2026-05-05 11:24 | 44.76609 | 1.60062 | 36936 ft | 448 kts | 172° |
| 2026-05-05 11:24 | 44.70512 | 1.61984 | 36938 ft | 448 kts | 172° |
| 2026-05-05 11:25 | 44.64459 | 1.63890 | 36943 ft | 447 kts | 172° |
| 2026-05-05 11:25 | 44.58387 | 1.65798 | 36948 ft | 446 kts | 172° |
| 2026-05-05 11:26 | 44.52356 | 1.67691 | 36945 ft | 446 kts | 172° |
| 2026-05-05 11:26 | 44.46291 | 1.69594 | 36951 ft | 445 kts | 172° |
| 2026-05-05 11:27 | 44.40269 | 1.71485 | 36944 ft | 446 kts | 172° |
| 2026-05-05 11:27 | 44.34210 | 1.73394 | 36948 ft | 445 kts | 173° |
| 2026-05-05 11:28 | 44.28180 | 1.75230 | 36962 ft | 444 kts | 174° |
| 2026-05-05 11:28 | 44.22065 | 1.76582 | 36937 ft | 444 kts | 177° |
| 2026-05-05 11:29 | 44.15949 | 1.77825 | 36952 ft | 444 kts | 176° |
| 2026-05-05 11:29 | 44.09867 | 1.79142 | 36945 ft | 444 kts | 176° |
| 2026-05-05 11:30 | 44.03746 | 1.80513 | 36954 ft | 444 kts | 176° |
| 2026-05-05 11:30 | 43.97631 | 1.81868 | 36957 ft | 444 kts | 176° |
| 2026-05-05 11:31 | 43.91536 | 1.82866 | 36950 ft | 441 kts | 181° |
| 2026-05-05 11:31 | 43.85408 | 1.83368 | 36951 ft | 440 kts | 182° |
| 2026-05-05 11:32 | 43.79288 | 1.83877 | 36961 ft | 440 kts | 182° |
| 2026-05-05 11:32 | 43.73173 | 1.84450 | 36957 ft | 440 kts | 182° |
| 2026-05-05 11:33 | 43.67097 | 1.85044 | 36967 ft | 439 kts | 182° |
| 2026-05-05 11:33 | 43.61016 | 1.85641 | 36968 ft | 437 kts | 182° |
| 2026-05-05 11:34 | 43.54938 | 1.86237 | 36969 ft | 436 kts | 182° |
| 2026-05-05 11:34 | 43.48909 | 1.86829 | 36962 ft | 436 kts | 182° |
| 2026-05-05 11:35 | 43.42857 | 1.87431 | 36958 ft | 435 kts | 182° |
| 2026-05-05 11:35 | 43.36859 | 1.88022 | 36949 ft | 433 kts | 182° |
| 2026-05-05 11:36 | 43.30842 | 1.88591 | 36956 ft | 432 kts | 183° |
| 2026-05-05 11:36 | 43.24837 | 1.89127 | 36954 ft | 432 kts | 183° |
| 2026-05-05 11:37 | 43.18865 | 1.89681 | 36958 ft | 431 kts | 183° |
| 2026-05-05 11:37 | 43.12865 | 1.90255 | 36949 ft | 431 kts | 183° |
| 2026-05-05 11:38 | 43.06871 | 1.90833 | 36948 ft | 431 kts | 183° |
| 2026-05-05 11:38 | 43.00929 | 1.91405 | 36945 ft | 430 kts | 183° |
| 2026-05-05 11:39 | 42.95950 | 1.91885 | 36946 ft | 430 kts | 183° |
| 2026-05-05 11:39 | 42.89979 | 1.92461 | 36937 ft | 430 kts | 183° |
| 2026-05-05 11:40 | 42.84007 | 1.93038 | 36931 ft | 430 kts | 184° |
| 2026-05-05 11:40 | 42.78025 | 1.93621 | 36928 ft | 430 kts | 184° |
| 2026-05-05 11:41 | 42.72076 | 1.94206 | 36933 ft | 430 kts | 184° |
| 2026-05-05 11:41 | 42.66089 | 1.94851 | 36939 ft | 433 kts | 181° |
| 2026-05-05 11:42 | 42.60143 | 1.95995 | 36922 ft | 433 kts | 179° |
| 2026-05-05 11:42 | 42.54183 | 1.97226 | 36911 ft | 431 kts | 179° |
| 2026-05-05 11:43 | 42.48241 | 1.98438 | 36907 ft | 430 kts | 180° |
| 2026-05-05 11:43 | 42.42356 | 1.99633 | 36910 ft | 429 kts | 180° |
| 2026-05-05 11:44 | 42.36463 | 2.00793 | 36904 ft | 427 kts | 181° |
| 2026-05-05 11:44 | 42.30580 | 2.01464 | 36884 ft | 422 kts | 185° |
| 2026-05-05 11:45 | 42.24717 | 2.01915 | 36913 ft | 421 kts | 185° |
| 2026-05-05 11:45 | 42.18889 | 2.02413 | 36918 ft | 421 kts | 184° |
| 2026-05-05 11:46 | 42.13050 | 2.02963 | 36914 ft | 421 kts | 184° |
| 2026-05-05 11:46 | 42.07184 | 2.03528 | 36910 ft | 422 kts | 185° |
| 2026-05-05 11:47 | 42.01315 | 2.04095 | 36920 ft | 423 kts | 185° |
| 2026-05-05 11:47 | 41.95453 | 2.04660 | 36925 ft | 425 kts | 184° |
| 2026-05-05 11:48 | 41.86598 | 2.05516 | 36927 ft | 427 kts | 184° |
| 2026-05-05 11:48 | 41.80644 | 2.06098 | 36927 ft | 428 kts | 184° |
| 2026-05-05 11:49 | 41.74686 | 2.06686 | 36928 ft | 428 kts | 185° |
| 2026-05-05 11:49 | 41.68783 | 2.07247 | 36936 ft | 428 kts | 185° |
| 2026-05-05 11:50 | 41.62836 | 2.07781 | 36936 ft | 427 kts | 185° |
| 2026-05-05 11:50 | 41.56945 | 2.08299 | 36932 ft | 428 kts | 185° |
| 2026-05-05 11:51 | 41.51565 | 2.08794 | 36935 ft | 427 kts | 185° |
| 2026-05-05 11:51 | 41.45652 | 2.09350 | 36938 ft | 426 kts | 185° |
| 2026-05-05 11:52 | 41.39768 | 2.09910 | 36942 ft | 426 kts | 185° |
| 2026-05-05 11:52 | 41.33853 | 2.10471 | 36932 ft | 425 kts | 185° |
| 2026-05-05 11:53 | 41.27942 | 2.11135 | 36937 ft | 427 kts | 183° |
| 2026-05-05 11:53 | 41.22076 | 2.12089 | 36932 ft | 427 kts | 182° |
| 2026-05-05 11:54 | 41.16176 | 2.13101 | 36934 ft | 426 kts | 182° |
| 2026-05-05 11:54 | 41.10294 | 2.14102 | 36935 ft | 425 kts | 183° |
| 2026-05-05 11:55 | 41.04443 | 2.15085 | 36936 ft | 425 kts | 183° |
| 2026-05-05 11:55 | 40.98569 | 2.16067 | 36939 ft | 424 kts | 183° |
| 2026-05-05 11:56 | 40.92710 | 2.17045 | 36932 ft | 424 kts | 183° |
| 2026-05-05 11:56 | 40.86844 | 2.18023 | 36931 ft | 424 kts | 183° |
| 2026-05-05 11:57 | 40.81032 | 2.18616 | 36938 ft | 413 kts | 193° |
| 2026-05-05 11:57 | 40.75485 | 2.17271 | 36928 ft | 403 kts | 203° |
| 2026-05-05 11:58 | 40.70048 | 2.15366 | 36935 ft | 404 kts | 203° |
| 2026-05-05 11:58 | 40.64629 | 2.13512 | 36939 ft | 405 kts | 202° |
| 2026-05-05 11:59 | 40.59163 | 2.11689 | 36940 ft | 406 kts | 202° |
| 2026-05-05 11:59 | 40.56410 | 2.10777 | 36585 ft | 411 kts | 202° |
| 2026-05-05 11:59 | 40.53632 | 2.09863 | 36111 ft | 406 kts | 202° |
| 2026-05-05 12:00 | 40.50929 | 2.08981 | 35425 ft | 404 kts | 202° |
| 2026-05-05 12:00 | 40.48208 | 2.08093 | 34735 ft | 402 kts | 202° |
| 2026-05-05 12:00 | 40.45487 | 2.07205 | 34031 ft | 401 kts | 201° |
| 2026-05-05 12:00 | 40.42768 | 2.06319 | 33213 ft | 400 kts | 201° |
| 2026-05-05 12:01 | 40.40063 | 2.05438 | 32453 ft | 399 kts | 201° |
| 2026-05-05 12:01 | 40.37371 | 2.04560 | 31678 ft | 398 kts | 201° |
| 2026-05-05 12:01 | 40.34710 | 2.03693 | 30883 ft | 399 kts | 202° |
| 2026-05-05 12:01 | 40.32014 | 2.02814 | 30060 ft | 400 kts | 201° |
| 2026-05-05 12:02 | 40.29309 | 2.01933 | 29083 ft | 401 kts | 202° |
| 2026-05-05 12:02 | 40.26601 | 2.01053 | 28215 ft | 400 kts | 201° |
| 2026-05-05 12:02 | 40.23925 | 2.00187 | 27587 ft | 394 kts | 201° |
| 2026-05-05 12:02 | 40.21277 | 1.99329 | 26957 ft | 389 kts | 201° |
| 2026-05-05 12:03 | 40.18654 | 1.98477 | 26311 ft | 386 kts | 201° |
| 2026-05-05 12:03 | 40.16060 | 1.97633 | 25674 ft | 381 kts | 201° |
| 2026-05-05 12:03 | 40.13471 | 1.96789 | 25064 ft | 386 kts | 200° |
| 2026-05-05 12:03 | 40.10845 | 1.95930 | 24452 ft | 399 kts | 200° |
| 2026-05-05 12:04 | 40.08139 | 1.95056 | 23777 ft | 399 kts | 199° |
| 2026-05-05 12:04 | 40.05446 | 1.94192 | 23042 ft | 395 kts | 199° |
| 2026-05-05 12:04 | 40.02822 | 1.93350 | 22337 ft | 390 kts | 199° |
| 2026-05-05 12:04 | 40.00205 | 1.92508 | 21697 ft | 385 kts | 199° |
| 2026-05-05 12:05 | 39.97604 | 1.91670 | 21040 ft | 380 kts | 199° |
| 2026-05-05 12:05 | 39.95053 | 1.90845 | 20417 ft | 376 kts | 199° |
| 2026-05-05 12:05 | 39.92522 | 1.90027 | 19797 ft | 372 kts | 199° |
| 2026-05-05 12:05 | 39.90047 | 1.89227 | 19194 ft | 369 kts | 200° |
| 2026-05-05 12:06 | 39.87560 | 1.88424 | 18590 ft | 366 kts | 200° |
| 2026-05-05 12:06 | 39.85087 | 1.87626 | 17932 ft | 365 kts | 199° |
| 2026-05-05 12:06 | 39.82626 | 1.86833 | 17260 ft | 362 kts | 199° |
| 2026-05-05 12:06 | 39.80185 | 1.86048 | 16633 ft | 359 kts | 199° |
| 2026-05-05 12:07 | 39.77795 | 1.85280 | 16030 ft | 356 kts | 198° |
| 2026-05-05 12:07 | 39.75391 | 1.84507 | 15435 ft | 354 kts | 198° |
| 2026-05-05 12:07 | 39.73004 | 1.83741 | 14846 ft | 351 kts | 198° |
| 2026-05-05 12:07 | 39.70636 | 1.82981 | 14268 ft | 350 kts | 198° |
| 2026-05-05 12:08 | 39.68274 | 1.82224 | 13685 ft | 348 kts | 198° |
| 2026-05-05 12:08 | 39.65926 | 1.81472 | 13043 ft | 347 kts | 198° |
| 2026-05-05 12:08 | 39.63615 | 1.80733 | 12447 ft | 345 kts | 197° |
| 2026-05-05 12:08 | 39.61295 | 1.79992 | 11868 ft | 342 kts | 197° |
| 2026-05-05 12:09 | 39.58979 | 1.79252 | 11296 ft | 340 kts | 197° |
| 2026-05-05 12:09 | 39.56690 | 1.78522 | 10868 ft | 335 kts | 197° |
| 2026-05-05 12:09 | 39.54499 | 1.77823 | 10734 ft | 321 kts | 197° |
| 2026-05-05 12:09 | 39.52370 | 1.77141 | 10579 ft | 309 kts | 197° |
| 2026-05-05 12:10 | 39.50320 | 1.76482 | 10453 ft | 297 kts | 197° |
| 2026-05-05 12:10 | 39.48345 | 1.75845 | 10325 ft | 287 kts | 198° |
| 2026-05-05 12:10 | 39.46465 | 1.75240 | 10209 ft | 277 kts | 198° |
| 2026-05-05 12:10 | 39.44629 | 1.74649 | 10099 ft | 267 kts | 198° |
| 2026-05-05 12:11 | 39.42847 | 1.74078 | 9982 ft | 258 kts | 198° |
| 2026-05-05 12:11 | 39.41121 | 1.73525 | 9789 ft | 253 kts | 198° |
| 2026-05-05 12:11 | 39.39417 | 1.72980 | 9503 ft | 251 kts | 198° |
| 2026-05-05 12:11 | 39.37722 | 1.72440 | 9219 ft | 249 kts | 198° |
| 2026-05-05 12:12 | 39.36060 | 1.71912 | 8958 ft | 247 kts | 198° |
| 2026-05-05 12:12 | 39.34392 | 1.71382 | 8679 ft | 246 kts | 198° |
| 2026-05-05 12:12 | 39.32737 | 1.70858 | 8404 ft | 244 kts | 198° |
| 2026-05-05 12:12 | 39.31083 | 1.70334 | 8132 ft | 242 kts | 198° |
| 2026-05-05 12:13 | 39.29468 | 1.69823 | 7869 ft | 241 kts | 198° |
| 2026-05-05 12:13 | 39.27844 | 1.69310 | 7607 ft | 240 kts | 198° |
| 2026-05-05 12:13 | 39.26219 | 1.68796 | 7338 ft | 240 kts | 198° |
| 2026-05-05 12:13 | 39.24573 | 1.68276 | 7086 ft | 247 kts | 198° |
| 2026-05-05 12:14 | 39.22877 | 1.67740 | 6817 ft | 254 kts | 198° |
| 2026-05-05 12:14 | 39.21164 | 1.67201 | 6525 ft | 253 kts | 198° |
| 2026-05-05 12:14 | 39.19472 | 1.66671 | 6240 ft | 252 kts | 198° |
| 2026-05-05 12:14 | 39.17781 | 1.66140 | 6002 ft | 248 kts | 198° |
| 2026-05-05 12:15 | 39.16102 | 1.65613 | 5721 ft | 246 kts | 198° |
| 2026-05-05 12:15 | 39.14438 | 1.65090 | 5449 ft | 245 kts | 198° |
| 2026-05-05 12:15 | 39.12786 | 1.64572 | 5182 ft | 244 kts | 198° |
| 2026-05-05 12:15 | 39.11155 | 1.64061 | 4905 ft | 243 kts | 198° |
| 2026-05-05 12:16 | 39.09515 | 1.63549 | 4637 ft | 242 kts | 198° |
| 2026-05-05 12:16 | 39.07881 | 1.63040 | 4363 ft | 241 kts | 197° |
| 2026-05-05 12:16 | 39.06246 | 1.62533 | 4146 ft | 238 kts | 197° |
| 2026-05-05 12:16 | 39.04687 | 1.62051 | 4033 ft | 230 kts | 198° |
| 2026-05-05 12:17 | 39.03172 | 1.61580 | 3960 ft | 217 kts | 198° |
| 2026-05-05 12:17 | 39.01745 | 1.61130 | 3843 ft | 204 kts | 199° |
| 2026-05-05 12:17 | 39.00415 | 1.60708 | 3748 ft | 189 kts | 199° |
| 2026-05-05 12:17 | 38.99178 | 1.60315 | 3641 ft | 176 kts | 200° |
| 2026-05-05 12:18 | 38.98017 | 1.59942 | 3569 ft | 175 kts | 200° |
| 2026-05-05 12:18 | 38.96825 | 1.59553 | 3424 ft | 174 kts | 211° |
| 2026-05-05 12:18 | 38.96093 | 1.58447 | 3354 ft | 160 kts | 262° |
| 2026-05-05 12:18 | 38.95773 | 1.57040 | 3139 ft | 169 kts | 240° |
| 2026-05-05 12:19 | 38.95046 | 1.55850 | 2960 ft | 173 kts | 241° |
| 2026-05-05 12:19 | 38.94437 | 1.54553 | 2756 ft | 171 kts | 246° |
| 2026-05-05 12:19 | 38.93872 | 1.53214 | 2526 ft | 167 kts | 247° |
| 2026-05-05 12:19 | 38.93334 | 1.51917 | 2307 ft | 160 kts | 248° |
| 2026-05-05 12:20 | 38.92837 | 1.50713 | 2137 ft | 144 kts | 250° |
| 2026-05-05 12:20 | 38.92370 | 1.49564 | 1905 ft | 144 kts | 249° |
| 2026-05-05 12:20 | 38.91899 | 1.48431 | 1721 ft | 143 kts | 249° |
| 2026-05-05 12:20 | 38.91431 | 1.47307 | 1543 ft | 143 kts | 248° |
| 2026-05-05 12:21 | 38.90958 | 1.46177 | 1315 ft | 141 kts | 249° |
| 2026-05-05 12:21 | 38.90507 | 1.45076 | 1166 ft | 140 kts | 251° |
| 2026-05-05 12:21 | 38.90054 | 1.43975 | 999 ft | 146 kts | 242° |
| 2026-05-05 12:21 | 38.89568 | 1.42839 | 773 ft | 143 kts | 243° |
| 2026-05-05 12:22 | 38.89112 | 1.41735 | 604 ft | 137 kts | 243° |
| 2026-05-05 12:22 | 38.88662 | 1.40653 | 409 ft | 137 kts | 241° |
| 2026-05-05 12:22 | 38.88225 | 1.39593 | 221 ft | 131 kts | 241° |
| 2026-05-05 12:22 | 38.87801 | 1.38562 | 51 ft | 132 kts | 242° |
| 2026-05-05 12:23 | 38.87416 | 1.37630 | 30 ft | 96 kts | 242° |
| 2026-05-05 12:23 | 38.87206 | 1.37122 | 29 ft | 33 kts | 243° |
| 2026-05-05 12:23 | 38.87168 | 1.37026 | 29 ft | 7 kts | 243° |
| 2026-05-05 12:23 | 38.87121 | 1.36883 | 29 ft | 28 kts | 254° |
| 2026-05-05 12:24 | 38.87104 | 1.36619 | 29 ft | 21 kts | 271° |
| 2026-05-05 12:24 | 38.87172 | 1.36586 | 34 ft | 12 kts | 59° |
| 2026-05-05 12:24 | 38.87209 | 1.36678 | 34 ft | 12 kts | 62° |
| 2026-05-05 12:24 | 38.87247 | 1.36769 | 36 ft | 11 kts | 62° |
| 2026-05-05 12:25 | 38.87290 | 1.36850 | 37 ft | 11 kts | 22° |
| 2026-05-05 12:25 | 38.87360 | 1.36816 | 39 ft | 11 kts | 333° |
| 2026-05-05 12:25 | 38.87403 | 1.36786 | 41 ft | 11 kts | 331° |
| 2026-05-05 12:25 | 38.87451 | 1.36822 | 43 ft | 9 kts | 64° |
| 2026-05-05 12:26 | 38.87479 | 1.36891 | 42 ft | 6 kts | 56° |
| 2026-05-05 12:26 | 38.87501 | 1.36891 | 45 ft | 3 kts | 342° |
| 2026-05-05 12:26 | 38.87534 | 1.36870 | 47 ft | 3 kts | 332° |
| 2026-05-05 12:26 | 38.87535 | 1.36869 | 47 ft | 0 kts | 332° |